sensor_id;sensor_type;location;lat;lon;timestamp;temperature;humidity
851;DHT22;412;51.400;7.480;2023-05-07T00:00:17;17.00;99.90
851;DHT22;412;51.400;7.480;2023-05-07T00:02:45;17.00;99.90
851;DHT22;412;51.400;7.480;2023-05-07T00:05:11;17.00;99.90
851;DHT22;412;51.400;7.480;2023-05-07T00:07:37;17.00;99.90
851;DHT22;412;51.400;7.480;2023-05-07T00:10:03;17.00;99.90
851;DHT22;412;51.400;7.480;2023-05-07T00:12:29;17.00;99.90
851;DHT22;412;51.400;7.480;2023-05-07T00:15:01;17.00;99.90
851;DHT22;412;51.400;7.480;2023-05-07T00:17:27;17.00;99.90
851;DHT22;412;51.400;7.480;2023-05-07T00:19:52;17.00;99.90
851;DHT22;412;51.400;7.480;2023-05-07T00:22:18;17.00;99.90
851;DHT22;412;51.400;7.480;2023-05-07T00:24:44;16.90;99.90
851;DHT22;412;51.400;7.480;2023-05-07T00:27:10;16.90;99.90
851;DHT22;412;51.400;7.480;2023-05-07T00:29:35;17.00;99.90
851;DHT22;412;51.400;7.480;2023-05-07T00:32:02;17.00;99.90
851;DHT22;412;51.400;7.480;2023-05-07T00:34:27;17.00;99.90
851;DHT22;412;51.400;7.480;2023-05-07T00:36:53;17.00;99.90
851;DHT22;412;51.400;7.480;2023-05-07T00:39:19;16.90;99.90
851;DHT22;412;51.400;7.480;2023-05-07T00:41:45;16.90;99.90
851;DHT22;412;51.400;7.480;2023-05-07T00:44:11;16.90;99.90
851;DHT22;412;51.400;7.480;2023-05-07T00:46:37;16.90;99.90
851;DHT22;412;51.400;7.480;2023-05-07T00:49:03;16.90;99.90
851;DHT22;412;51.400;7.480;2023-05-07T00:51:30;16.80;99.90
851;DHT22;412;51.400;7.480;2023-05-07T00:53:56;16.80;99.90
851;DHT22;412;51.400;7.480;2023-05-07T00:56:22;16.90;99.90
851;DHT22;412;51.400;7.480;2023-05-07T00:58:49;16.90;99.90
851;DHT22;412;51.400;7.480;2023-05-07T01:01:15;16.90;99.90
851;DHT22;412;51.400;7.480;2023-05-07T01:03:44;16.90;99.90
851;DHT22;412;51.400;7.480;2023-05-07T01:06:12;16.90;99.90
851;DHT22;412;51.400;7.480;2023-05-07T01:08:39;16.90;99.90
851;DHT22;412;51.400;7.480;2023-05-07T01:11:07;16.80;99.90
851;DHT22;412;51.400;7.480;2023-05-07T01:13:34;16.70;99.90
851;DHT22;412;51.400;7.480;2023-05-07T01:16:01;16.70;99.90
851;DHT22;412;51.400;7.480;2023-05-07T01:18:27;16.70;99.90
851;DHT22;412;51.400;7.480;2023-05-07T01:20:56;16.70;99.90
851;DHT22;412;51.400;7.480;2023-05-07T01:23:22;16.70;99.90
851;DHT22;412;51.400;7.480;2023-05-07T01:25:52;16.60;99.90
851;DHT22;412;51.400;7.480;2023-05-07T01:28:18;16.70;99.90
851;DHT22;412;51.400;7.480;2023-05-07T01:30:47;16.70;99.90
851;DHT22;412;51.400;7.480;2023-05-07T01:33:15;16.70;99.90
851;DHT22;412;51.400;7.480;2023-05-07T01:35:46;16.70;99.90
851;DHT22;412;51.400;7.480;2023-05-07T01:38:13;16.80;99.90
851;DHT22;412;51.400;7.480;2023-05-07T01:40:39;16.80;99.90
851;DHT22;412;51.400;7.480;2023-05-07T01:43:05;16.80;99.90
851;DHT22;412;51.400;7.480;2023-05-07T01:45:32;16.80;99.90
851;DHT22;412;51.400;7.480;2023-05-07T01:47:59;16.80;99.90
851;DHT22;412;51.400;7.480;2023-05-07T01:50:26;16.80;99.90
851;DHT22;412;51.400;7.480;2023-05-07T01:52:56;16.80;99.90
851;DHT22;412;51.400;7.480;2023-05-07T01:55:22;16.80;99.90
851;DHT22;412;51.400;7.480;2023-05-07T01:57:48;16.80;99.90
851;DHT22;412;51.400;7.480;2023-05-07T02:00:16;16.80;99.90
851;DHT22;412;51.400;7.480;2023-05-07T02:02:43;16.80;99.90
851;DHT22;412;51.400;7.480;2023-05-07T02:05:08;16.80;99.90
851;DHT22;412;51.400;7.480;2023-05-07T02:07:35;16.80;99.90
851;DHT22;412;51.400;7.480;2023-05-07T02:10:00;16.80;99.90
851;DHT22;412;51.400;7.480;2023-05-07T02:12:26;16.80;99.90
851;DHT22;412;51.400;7.480;2023-05-07T02:14:55;16.80;99.90
851;DHT22;412;51.400;7.480;2023-05-07T02:17:21;16.70;99.90
851;DHT22;412;51.400;7.480;2023-05-07T02:19:46;16.70;99.90
851;DHT22;412;51.400;7.480;2023-05-07T02:22:12;16.70;99.90
851;DHT22;412;51.400;7.480;2023-05-07T02:24:38;16.60;99.90
851;DHT22;412;51.400;7.480;2023-05-07T02:27:04;16.60;99.90
851;DHT22;412;51.400;7.480;2023-05-07T02:29:29;16.60;99.90
851;DHT22;412;51.400;7.480;2023-05-07T02:31:55;16.60;99.90
851;DHT22;412;51.400;7.480;2023-05-07T02:34:21;16.50;99.90
851;DHT22;412;51.400;7.480;2023-05-07T02:36:47;16.50;99.90
851;DHT22;412;51.400;7.480;2023-05-07T02:39:13;16.50;99.90
851;DHT22;412;51.400;7.480;2023-05-07T02:41:39;16.40;99.90
851;DHT22;412;51.400;7.480;2023-05-07T02:44:05;16.40;99.90
851;DHT22;412;51.400;7.480;2023-05-07T02:46:31;16.40;99.90
851;DHT22;412;51.400;7.480;2023-05-07T02:48:57;16.40;99.90
851;DHT22;412;51.400;7.480;2023-05-07T02:51:23;16.40;99.90
851;DHT22;412;51.400;7.480;2023-05-07T02:53:49;16.40;99.90
851;DHT22;412;51.400;7.480;2023-05-07T02:56:14;16.30;99.90
851;DHT22;412;51.400;7.480;2023-05-07T02:58:40;16.30;99.90
851;DHT22;412;51.400;7.480;2023-05-07T03:01:08;16.30;99.90
851;DHT22;412;51.400;7.480;2023-05-07T03:03:34;16.30;99.90
851;DHT22;412;51.400;7.480;2023-05-07T03:06:00;16.30;99.90
851;DHT22;412;51.400;7.480;2023-05-07T03:08:26;16.30;99.90
851;DHT22;412;51.400;7.480;2023-05-07T03:10:52;16.20;99.90
851;DHT22;412;51.400;7.480;2023-05-07T03:13:18;16.20;99.90
851;DHT22;412;51.400;7.480;2023-05-07T03:15:44;16.20;99.90
851;DHT22;412;51.400;7.480;2023-05-07T03:18:10;16.20;99.90
851;DHT22;412;51.400;7.480;2023-05-07T03:20:35;16.20;99.90
851;DHT22;412;51.400;7.480;2023-05-07T03:23:02;16.20;99.90
851;DHT22;412;51.400;7.480;2023-05-07T03:25:28;16.20;99.90
851;DHT22;412;51.400;7.480;2023-05-07T03:27:56;16.20;99.90
851;DHT22;412;51.400;7.480;2023-05-07T03:30:21;16.20;99.90
851;DHT22;412;51.400;7.480;2023-05-07T03:32:47;16.10;99.90
851;DHT22;412;51.400;7.480;2023-05-07T03:35:13;16.10;99.90
851;DHT22;412;51.400;7.480;2023-05-07T03:37:40;16.10;99.90
851;DHT22;412;51.400;7.480;2023-05-07T03:40:06;16.10;99.90
851;DHT22;412;51.400;7.480;2023-05-07T03:42:32;16.10;99.90
851;DHT22;412;51.400;7.480;2023-05-07T03:44:57;16.20;99.90
851;DHT22;412;51.400;7.480;2023-05-07T03:47:23;16.10;99.90
851;DHT22;412;51.400;7.480;2023-05-07T03:49:49;16.20;99.90
851;DHT22;412;51.400;7.480;2023-05-07T03:52:16;16.10;99.90
851;DHT22;412;51.400;7.480;2023-05-07T03:54:41;16.10;99.90
851;DHT22;412;51.400;7.480;2023-05-07T03:57:07;16.10;99.90
851;DHT22;412;51.400;7.480;2023-05-07T03:59:33;16.10;99.90
851;DHT22;412;51.400;7.480;2023-05-07T04:01:58;16.10;99.90
851;DHT22;412;51.400;7.480;2023-05-07T04:04:24;16.10;99.90
851;DHT22;412;51.400;7.480;2023-05-07T04:06:50;16.10;99.90
851;DHT22;412;51.400;7.480;2023-05-07T04:09:17;16.10;99.90
851;DHT22;412;51.400;7.480;2023-05-07T04:11:42;16.10;99.90
851;DHT22;412;51.400;7.480;2023-05-07T04:14:08;16.00;99.90
851;DHT22;412;51.400;7.480;2023-05-07T04:16:34;16.00;99.90
851;DHT22;412;51.400;7.480;2023-05-07T04:19:00;16.00;99.90
851;DHT22;412;51.400;7.480;2023-05-07T04:21:26;16.00;99.90
851;DHT22;412;51.400;7.480;2023-05-07T04:23:52;16.00;99.90
851;DHT22;412;51.400;7.480;2023-05-07T04:26:18;16.00;99.90
851;DHT22;412;51.400;7.480;2023-05-07T04:28:43;16.00;99.90
851;DHT22;412;51.400;7.480;2023-05-07T04:31:09;15.90;99.90
851;DHT22;412;51.400;7.480;2023-05-07T04:33:35;15.70;99.90
851;DHT22;412;51.400;7.480;2023-05-07T04:36:02;15.60;99.90
851;DHT22;412;51.400;7.480;2023-05-07T04:38:32;15.60;99.90
851;DHT22;412;51.400;7.480;2023-05-07T04:41:03;15.70;99.90
851;DHT22;412;51.400;7.480;2023-05-07T04:43:29;15.80;99.90
851;DHT22;412;51.400;7.480;2023-05-07T04:45:55;15.80;99.90
851;DHT22;412;51.400;7.480;2023-05-07T04:48:21;15.90;99.90
851;DHT22;412;51.400;7.480;2023-05-07T04:50:50;15.90;99.90
851;DHT22;412;51.400;7.480;2023-05-07T04:53:16;15.90;99.90
851;DHT22;412;51.400;7.480;2023-05-07T04:55:43;15.90;99.90
851;DHT22;412;51.400;7.480;2023-05-07T04:58:10;16.00;99.90
851;DHT22;412;51.400;7.480;2023-05-07T05:00:36;15.90;99.90
851;DHT22;412;51.400;7.480;2023-05-07T05:03:02;15.80;99.90
851;DHT22;412;51.400;7.480;2023-05-07T05:05:28;15.90;99.90
851;DHT22;412;51.400;7.480;2023-05-07T05:07:53;16.00;99.90
851;DHT22;412;51.400;7.480;2023-05-07T05:10:19;16.00;99.90
851;DHT22;412;51.400;7.480;2023-05-07T05:12:45;16.00;99.90
851;DHT22;412;51.400;7.480;2023-05-07T05:15:12;16.00;99.90
851;DHT22;412;51.400;7.480;2023-05-07T05:17:39;16.00;99.90
851;DHT22;412;51.400;7.480;2023-05-07T05:20:05;16.00;99.90
851;DHT22;412;51.400;7.480;2023-05-07T05:22:32;16.10;99.90
851;DHT22;412;51.400;7.480;2023-05-07T05:24:57;16.10;99.90
851;DHT22;412;51.400;7.480;2023-05-07T05:27:23;16.10;99.90
851;DHT22;412;51.400;7.480;2023-05-07T05:29:49;16.10;99.90
851;DHT22;412;51.400;7.480;2023-05-07T05:32:15;16.20;99.90
851;DHT22;412;51.400;7.480;2023-05-07T05:34:41;16.30;99.90
851;DHT22;412;51.400;7.480;2023-05-07T05:37:06;16.30;99.90
851;DHT22;412;51.400;7.480;2023-05-07T05:39:32;16.40;99.90
851;DHT22;412;51.400;7.480;2023-05-07T05:41:58;16.50;99.90
851;DHT22;412;51.400;7.480;2023-05-07T05:44:24;16.50;99.90
851;DHT22;412;51.400;7.480;2023-05-07T05:46:49;16.50;99.90
851;DHT22;412;51.400;7.480;2023-05-07T05:49:15;16.40;99.90
851;DHT22;412;51.400;7.480;2023-05-07T05:51:42;16.40;99.90
851;DHT22;412;51.400;7.480;2023-05-07T05:54:08;16.50;99.90
851;DHT22;412;51.400;7.480;2023-05-07T05:56:34;16.60;99.90
851;DHT22;412;51.400;7.480;2023-05-07T05:59:00;16.60;99.90
851;DHT22;412;51.400;7.480;2023-05-07T06:01:26;16.70;99.90
851;DHT22;412;51.400;7.480;2023-05-07T06:03:52;16.80;99.90
851;DHT22;412;51.400;7.480;2023-05-07T06:06:18;16.80;99.90
851;DHT22;412;51.400;7.480;2023-05-07T06:08:43;16.90;99.90
851;DHT22;412;51.400;7.480;2023-05-07T06:11:09;16.80;99.90
851;DHT22;412;51.400;7.480;2023-05-07T06:13:35;16.70;99.90
851;DHT22;412;51.400;7.480;2023-05-07T06:16:01;16.70;99.90
851;DHT22;412;51.400;7.480;2023-05-07T06:18:26;16.90;99.90
851;DHT22;412;51.400;7.480;2023-05-07T06:20:53;17.00;99.90
851;DHT22;412;51.400;7.480;2023-05-07T06:23:19;17.10;99.90
851;DHT22;412;51.400;7.480;2023-05-07T06:25:50;17.10;99.90
851;DHT22;412;51.400;7.480;2023-05-07T06:28:16;17.10;99.90
851;DHT22;412;51.400;7.480;2023-05-07T06:30:42;17.00;99.90
851;DHT22;412;51.400;7.480;2023-05-07T06:33:08;16.80;99.90
851;DHT22;412;51.400;7.480;2023-05-07T06:35:34;16.80;99.90
851;DHT22;412;51.400;7.480;2023-05-07T06:38:00;16.80;99.90
851;DHT22;412;51.400;7.480;2023-05-07T06:40:26;16.90;99.90
851;DHT22;412;51.400;7.480;2023-05-07T06:42:52;17.00;99.90
851;DHT22;412;51.400;7.480;2023-05-07T06:45:19;17.10;99.90
851;DHT22;412;51.400;7.480;2023-05-07T06:47:45;17.20;99.90
851;DHT22;412;51.400;7.480;2023-05-07T06:50:11;17.30;99.90
851;DHT22;412;51.400;7.480;2023-05-07T06:52:37;17.40;99.90
851;DHT22;412;51.400;7.480;2023-05-07T06:55:03;17.40;99.90
851;DHT22;412;51.400;7.480;2023-05-07T06:57:29;17.50;99.90
851;DHT22;412;51.400;7.480;2023-05-07T06:59:55;17.50;99.90
851;DHT22;412;51.400;7.480;2023-05-07T07:02:21;17.40;99.90
851;DHT22;412;51.400;7.480;2023-05-07T07:04:47;17.50;99.90
851;DHT22;412;51.400;7.480;2023-05-07T07:07:13;17.50;99.90
851;DHT22;412;51.400;7.480;2023-05-07T07:09:38;17.40;99.90
851;DHT22;412;51.400;7.480;2023-05-07T07:12:04;17.60;99.90
851;DHT22;412;51.400;7.480;2023-05-07T07:14:30;17.90;99.90
851;DHT22;412;51.400;7.480;2023-05-07T07:16:56;18.30;99.90
851;DHT22;412;51.400;7.480;2023-05-07T07:19:22;18.50;99.90
851;DHT22;412;51.400;7.480;2023-05-07T07:21:47;18.70;99.90
851;DHT22;412;51.400;7.480;2023-05-07T07:24:14;18.80;99.90
851;DHT22;412;51.400;7.480;2023-05-07T07:26:44;18.90;99.90
851;DHT22;412;51.400;7.480;2023-05-07T07:29:10;19.00;99.90
851;DHT22;412;51.400;7.480;2023-05-07T07:31:36;19.20;99.90
851;DHT22;412;51.400;7.480;2023-05-07T07:34:02;19.30;99.90
851;DHT22;412;51.400;7.480;2023-05-07T07:36:27;19.50;99.90
851;DHT22;412;51.400;7.480;2023-05-07T07:38:53;19.60;99.90
851;DHT22;412;51.400;7.480;2023-05-07T07:41:19;19.60;99.90
851;DHT22;412;51.400;7.480;2023-05-07T07:43:45;19.50;99.90
851;DHT22;412;51.400;7.480;2023-05-07T07:46:12;19.50;99.90
851;DHT22;412;51.400;7.480;2023-05-07T07:48:38;19.60;99.90
851;DHT22;412;51.400;7.480;2023-05-07T07:51:04;19.70;99.90
851;DHT22;412;51.400;7.480;2023-05-07T07:53:30;19.70;99.90
851;DHT22;412;51.400;7.480;2023-05-07T07:55:56;19.80;99.90
851;DHT22;412;51.400;7.480;2023-05-07T07:58:21;19.80;99.90
851;DHT22;412;51.400;7.480;2023-05-07T08:00:48;19.80;99.90
851;DHT22;412;51.400;7.480;2023-05-07T08:03:14;19.90;99.90
851;DHT22;412;51.400;7.480;2023-05-07T08:05:42;19.80;99.90
851;DHT22;412;51.400;7.480;2023-05-07T08:08:08;19.80;99.90
851;DHT22;412;51.400;7.480;2023-05-07T08:10:34;19.70;99.90
851;DHT22;412;51.400;7.480;2023-05-07T08:13:00;19.70;99.90
851;DHT22;412;51.400;7.480;2023-05-07T08:15:26;19.60;99.90
851;DHT22;412;51.400;7.480;2023-05-07T08:17:52;19.50;99.90
851;DHT22;412;51.400;7.480;2023-05-07T08:20:17;19.50;99.90
851;DHT22;412;51.400;7.480;2023-05-07T08:22:43;19.40;99.90
851;DHT22;412;51.400;7.480;2023-05-07T08:25:09;19.40;99.90
851;DHT22;412;51.400;7.480;2023-05-07T08:27:35;19.30;99.90
851;DHT22;412;51.400;7.480;2023-05-07T08:30:01;19.20;99.90
851;DHT22;412;51.400;7.480;2023-05-07T08:32:27;19.20;99.90
851;DHT22;412;51.400;7.480;2023-05-07T08:34:53;19.40;99.90
851;DHT22;412;51.400;7.480;2023-05-07T08:37:19;19.50;99.90
851;DHT22;412;51.400;7.480;2023-05-07T08:39:44;19.60;99.90
851;DHT22;412;51.400;7.480;2023-05-07T08:42:11;19.80;99.90
851;DHT22;412;51.400;7.480;2023-05-07T08:44:38;19.90;99.90
851;DHT22;412;51.400;7.480;2023-05-07T08:47:06;19.80;99.90
851;DHT22;412;51.400;7.480;2023-05-07T08:49:33;20.00;99.90
851;DHT22;412;51.400;7.480;2023-05-07T08:52:00;20.30;99.90
851;DHT22;412;51.400;7.480;2023-05-07T08:54:26;20.60;99.90
851;DHT22;412;51.400;7.480;2023-05-07T08:56:53;20.80;99.90
851;DHT22;412;51.400;7.480;2023-05-07T08:59:19;20.90;99.90
851;DHT22;412;51.400;7.480;2023-05-07T09:01:45;21.20;99.90
851;DHT22;412;51.400;7.480;2023-05-07T09:04:11;21.30;99.90
851;DHT22;412;51.400;7.480;2023-05-07T09:06:38;21.50;99.90
851;DHT22;412;51.400;7.480;2023-05-07T09:09:07;21.60;99.90
851;DHT22;412;51.400;7.480;2023-05-07T09:11:33;21.60;99.90
851;DHT22;412;51.400;7.480;2023-05-07T09:13:59;21.70;99.90
851;DHT22;412;51.400;7.480;2023-05-07T09:16:30;21.70;99.90
851;DHT22;412;51.400;7.480;2023-05-07T09:18:57;21.70;99.90
851;DHT22;412;51.400;7.480;2023-05-07T09:21:23;21.60;99.90
851;DHT22;412;51.400;7.480;2023-05-07T09:23:53;21.60;99.90
851;DHT22;412;51.400;7.480;2023-05-07T09:26:23;21.50;99.90
851;DHT22;412;51.400;7.480;2023-05-07T09:28:49;21.60;99.90
851;DHT22;412;51.400;7.480;2023-05-07T09:31:15;21.50;99.90
851;DHT22;412;51.400;7.480;2023-05-07T09:33:41;21.40;99.90
851;DHT22;412;51.400;7.480;2023-05-07T09:36:09;21.50;99.90
851;DHT22;412;51.400;7.480;2023-05-07T09:38:36;21.70;99.90
851;DHT22;412;51.400;7.480;2023-05-07T09:41:09;21.80;99.90
851;DHT22;412;51.400;7.480;2023-05-07T09:43:37;22.00;99.90
851;DHT22;412;51.400;7.480;2023-05-07T09:46:14;22.40;99.90
851;DHT22;412;51.400;7.480;2023-05-07T09:48:42;22.70;99.90
851;DHT22;412;51.400;7.480;2023-05-07T09:51:36;23.00;99.90
851;DHT22;412;51.400;7.480;2023-05-07T09:54:05;23.20;99.90
851;DHT22;412;51.400;7.480;2023-05-07T09:56:32;23.10;96.80
851;DHT22;412;51.400;7.480;2023-05-07T09:59:00;23.20;99.90
851;DHT22;412;51.400;7.480;2023-05-07T10:01:27;23.60;99.90
851;DHT22;412;51.400;7.480;2023-05-07T10:03:54;23.80;99.10
851;DHT22;412;51.400;7.480;2023-05-07T10:06:20;23.90;98.60
851;DHT22;412;51.400;7.480;2023-05-07T10:08:48;23.80;98.30
851;DHT22;412;51.400;7.480;2023-05-07T10:11:15;23.80;96.30
851;DHT22;412;51.400;7.480;2023-05-07T10:13:43;23.70;94.60
851;DHT22;412;51.400;7.480;2023-05-07T10:16:09;23.50;94.50
851;DHT22;412;51.400;7.480;2023-05-07T10:18:34;23.30;95.70
851;DHT22;412;51.400;7.480;2023-05-07T10:21:20;23.20;95.10
851;DHT22;412;51.400;7.480;2023-05-07T10:23:58;23.00;95.70
851;DHT22;412;51.400;7.480;2023-05-07T10:26:25;23.00;95.10
851;DHT22;412;51.400;7.480;2023-05-07T10:29:05;22.90;96.20
851;DHT22;412;51.400;7.480;2023-05-07T10:34:10;22.70;97.20
851;DHT22;412;51.400;7.480;2023-05-07T10:36:37;22.70;99.90
851;DHT22;412;51.400;7.480;2023-05-07T10:39:06;22.70;99.90
851;DHT22;412;51.400;7.480;2023-05-07T10:41:32;22.60;99.90
851;DHT22;412;51.400;7.480;2023-05-07T10:43:57;22.50;99.90
851;DHT22;412;51.400;7.480;2023-05-07T10:46:26;22.50;99.90
851;DHT22;412;51.400;7.480;2023-05-07T10:51:32;22.60;99.90
851;DHT22;412;51.400;7.480;2023-05-07T10:56:43;22.70;99.90
851;DHT22;412;51.400;7.480;2023-05-07T11:01:56;23.20;99.90
851;DHT22;412;51.400;7.480;2023-05-07T11:04:28;23.50;99.90
851;DHT22;412;51.400;7.480;2023-05-07T11:12:53;24.50;97.50
851;DHT22;412;51.400;7.480;2023-05-07T11:15:36;24.40;95.00
851;DHT22;412;51.400;7.480;2023-05-07T11:18:02;24.10;95.90
851;DHT22;412;51.400;7.480;2023-05-07T11:26:09;23.50;97.70
851;DHT22;412;51.400;7.480;2023-05-07T11:28:39;23.30;99.40
851;DHT22;412;51.400;7.480;2023-05-07T11:31:07;23.30;99.90
851;DHT22;412;51.400;7.480;2023-05-07T11:33:34;23.10;98.90
851;DHT22;412;51.400;7.480;2023-05-07T11:36:02;23.00;99.90
851;DHT22;412;51.400;7.480;2023-05-07T11:38:34;23.00;99.90
851;DHT22;412;51.400;7.480;2023-05-07T11:41:00;22.90;99.90
851;DHT22;412;51.400;7.480;2023-05-07T11:43:27;22.80;99.90
851;DHT22;412;51.400;7.480;2023-05-07T11:45:53;22.80;99.90
851;DHT22;412;51.400;7.480;2023-05-07T11:48:21;22.70;99.90
851;DHT22;412;51.400;7.480;2023-05-07T11:51:07;22.60;99.90
851;DHT22;412;51.400;7.480;2023-05-07T11:53:41;22.50;99.90
851;DHT22;412;51.400;7.480;2023-05-07T11:56:09;22.20;99.90
851;DHT22;412;51.400;7.480;2023-05-07T11:58:35;22.00;99.90
851;DHT22;412;51.400;7.480;2023-05-07T12:01:01;21.90;99.90
851;DHT22;412;51.400;7.480;2023-05-07T12:03:27;22.00;99.90
851;DHT22;412;51.400;7.480;2023-05-07T12:05:55;22.10;99.90
851;DHT22;412;51.400;7.480;2023-05-07T12:08:21;22.20;99.90
851;DHT22;412;51.400;7.480;2023-05-07T12:10:49;22.30;99.90
851;DHT22;412;51.400;7.480;2023-05-07T12:13:19;22.40;99.90
851;DHT22;412;51.400;7.480;2023-05-07T12:15:45;22.60;99.90
851;DHT22;412;51.400;7.480;2023-05-07T12:18:12;22.80;99.90
851;DHT22;412;51.400;7.480;2023-05-07T12:20:39;22.90;99.90
851;DHT22;412;51.400;7.480;2023-05-07T12:23:05;22.90;99.90
851;DHT22;412;51.400;7.480;2023-05-07T12:25:41;23.00;99.90
851;DHT22;412;51.400;7.480;2023-05-07T12:28:17;23.00;99.90
851;DHT22;412;51.400;7.480;2023-05-07T12:30:44;22.50;99.90
851;DHT22;412;51.400;7.480;2023-05-07T12:33:10;22.40;99.90
851;DHT22;412;51.400;7.480;2023-05-07T12:35:38;22.40;99.90
851;DHT22;412;51.400;7.480;2023-05-07T12:38:08;22.40;99.90
851;DHT22;412;51.400;7.480;2023-05-07T12:40:44;22.30;99.90
851;DHT22;412;51.400;7.480;2023-05-07T12:43:27;22.20;99.90
851;DHT22;412;51.400;7.480;2023-05-07T12:45:55;22.10;99.90
851;DHT22;412;51.400;7.480;2023-05-07T12:48:21;21.90;99.90
851;DHT22;412;51.400;7.480;2023-05-07T12:50:51;21.80;99.90
851;DHT22;412;51.400;7.480;2023-05-07T12:53:21;21.80;99.90
851;DHT22;412;51.400;7.480;2023-05-07T12:55:48;21.80;99.90
851;DHT22;412;51.400;7.480;2023-05-07T12:58:35;21.80;99.90
851;DHT22;412;51.400;7.480;2023-05-07T13:01:04;21.70;99.90
851;DHT22;412;51.400;7.480;2023-05-07T13:03:35;21.70;99.90
851;DHT22;412;51.400;7.480;2023-05-07T13:06:08;21.60;99.90
851;DHT22;412;51.400;7.480;2023-05-07T13:08:41;21.50;99.90
851;DHT22;412;51.400;7.480;2023-05-07T13:11:10;21.40;99.90
851;DHT22;412;51.400;7.480;2023-05-07T13:13:37;21.50;99.90
851;DHT22;412;51.400;7.480;2023-05-07T13:16:05;21.40;99.90
851;DHT22;412;51.400;7.480;2023-05-07T13:18:32;21.40;99.90
851;DHT22;412;51.400;7.480;2023-05-07T13:20:58;21.50;99.90
851;DHT22;412;51.400;7.480;2023-05-07T13:23:24;21.50;99.90
851;DHT22;412;51.400;7.480;2023-05-07T13:25:51;21.50;99.90
851;DHT22;412;51.400;7.480;2023-05-07T13:28:19;21.50;99.90
851;DHT22;412;51.400;7.480;2023-05-07T13:30:46;21.60;99.90
851;DHT22;412;51.400;7.480;2023-05-07T13:33:12;21.50;99.90
851;DHT22;412;51.400;7.480;2023-05-07T13:35:38;21.50;99.90
851;DHT22;412;51.400;7.480;2023-05-07T13:38:04;21.40;99.90
851;DHT22;412;51.400;7.480;2023-05-07T13:40:30;21.50;99.90
851;DHT22;412;51.400;7.480;2023-05-07T13:43:00;21.30;99.90
851;DHT22;412;51.400;7.480;2023-05-07T13:45:29;21.30;99.90
851;DHT22;412;51.400;7.480;2023-05-07T13:47:55;21.30;99.90
851;DHT22;412;51.400;7.480;2023-05-07T13:50:21;21.20;99.90
851;DHT22;412;51.400;7.480;2023-05-07T13:52:47;21.00;99.90
851;DHT22;412;51.400;7.480;2023-05-07T13:55:20;21.00;99.90
851;DHT22;412;51.400;7.480;2023-05-07T13:57:46;21.00;99.90
851;DHT22;412;51.400;7.480;2023-05-07T14:00:13;20.90;99.90
851;DHT22;412;51.400;7.480;2023-05-07T14:02:39;20.70;99.90
851;DHT22;412;51.400;7.480;2023-05-07T14:05:06;20.60;99.90
851;DHT22;412;51.400;7.480;2023-05-07T14:07:32;20.40;99.90
851;DHT22;412;51.400;7.480;2023-05-07T14:09:57;20.10;99.90
851;DHT22;412;51.400;7.480;2023-05-07T14:12:23;20.00;99.90
851;DHT22;412;51.400;7.480;2023-05-07T14:14:49;20.00;99.90
851;DHT22;412;51.400;7.480;2023-05-07T14:17:19;19.90;99.90
851;DHT22;412;51.400;7.480;2023-05-07T14:19:45;19.80;99.90
851;DHT22;412;51.400;7.480;2023-05-07T14:22:13;19.70;99.90
851;DHT22;412;51.400;7.480;2023-05-07T14:24:39;19.60;99.90
851;DHT22;412;51.400;7.480;2023-05-07T14:27:05;19.60;99.90
851;DHT22;412;51.400;7.480;2023-05-07T14:29:31;19.50;99.90
851;DHT22;412;51.400;7.480;2023-05-07T14:31:57;19.30;99.90
851;DHT22;412;51.400;7.480;2023-05-07T14:34:22;19.30;99.90
851;DHT22;412;51.400;7.480;2023-05-07T14:36:48;19.40;99.90
851;DHT22;412;51.400;7.480;2023-05-07T14:39:14;19.50;99.90
851;DHT22;412;51.400;7.480;2023-05-07T14:41:40;19.60;99.90
851;DHT22;412;51.400;7.480;2023-05-07T14:44:06;19.80;99.90
851;DHT22;412;51.400;7.480;2023-05-07T14:46:32;19.90;99.90
851;DHT22;412;51.400;7.480;2023-05-07T14:48:57;20.00;99.90
851;DHT22;412;51.400;7.480;2023-05-07T14:51:23;20.00;99.90
851;DHT22;412;51.400;7.480;2023-05-07T14:53:50;20.10;99.90
851;DHT22;412;51.400;7.480;2023-05-07T14:56:16;20.10;99.90
851;DHT22;412;51.400;7.480;2023-05-07T14:58:43;20.10;99.90
851;DHT22;412;51.400;7.480;2023-05-07T15:01:09;20.20;99.90
851;DHT22;412;51.400;7.480;2023-05-07T15:03:35;20.20;99.90
851;DHT22;412;51.400;7.480;2023-05-07T15:06:02;20.20;99.90
851;DHT22;412;51.400;7.480;2023-05-07T15:08:28;20.10;99.90
851;DHT22;412;51.400;7.480;2023-05-07T15:10:54;20.10;99.90
851;DHT22;412;51.400;7.480;2023-05-07T15:13:21;20.10;99.90
851;DHT22;412;51.400;7.480;2023-05-07T15:15:47;19.90;99.90
851;DHT22;412;51.400;7.480;2023-05-07T15:18:14;19.90;99.90
851;DHT22;412;51.400;7.480;2023-05-07T15:20:41;19.90;99.90
851;DHT22;412;51.400;7.480;2023-05-07T15:23:08;20.00;99.90
851;DHT22;412;51.400;7.480;2023-05-07T15:25:41;20.00;99.90
851;DHT22;412;51.400;7.480;2023-05-07T15:28:06;20.00;99.90
851;DHT22;412;51.400;7.480;2023-05-07T15:30:33;20.00;99.90
851;DHT22;412;51.400;7.480;2023-05-07T15:32:58;20.10;99.90
851;DHT22;412;51.400;7.480;2023-05-07T15:35:24;20.10;99.90
851;DHT22;412;51.400;7.480;2023-05-07T15:37:51;20.10;99.90
851;DHT22;412;51.400;7.480;2023-05-07T15:40:17;20.10;99.90
851;DHT22;412;51.400;7.480;2023-05-07T15:42:44;20.10;99.90
851;DHT22;412;51.400;7.480;2023-05-07T15:45:10;20.10;99.90
851;DHT22;412;51.400;7.480;2023-05-07T15:47:38;20.10;99.90
851;DHT22;412;51.400;7.480;2023-05-07T15:50:05;20.10;99.90
851;DHT22;412;51.400;7.480;2023-05-07T15:52:31;20.10;99.90
851;DHT22;412;51.400;7.480;2023-05-07T15:54:57;20.10;99.90
851;DHT22;412;51.400;7.480;2023-05-07T15:57:23;20.10;99.90
851;DHT22;412;51.400;7.480;2023-05-07T15:59:49;20.10;99.90
851;DHT22;412;51.400;7.480;2023-05-07T16:02:15;20.10;99.90
851;DHT22;412;51.400;7.480;2023-05-07T16:04:41;20.10;99.90
851;DHT22;412;51.400;7.480;2023-05-07T16:07:06;20.10;99.90
851;DHT22;412;51.400;7.480;2023-05-07T16:09:33;20.00;99.90
851;DHT22;412;51.400;7.480;2023-05-07T16:12:01;20.10;99.90
851;DHT22;412;51.400;7.480;2023-05-07T16:14:28;20.10;99.90
851;DHT22;412;51.400;7.480;2023-05-07T16:16:54;20.00;99.90
851;DHT22;412;51.400;7.480;2023-05-07T16:19:19;20.00;99.90
851;DHT22;412;51.400;7.480;2023-05-07T16:21:45;20.00;99.90
851;DHT22;412;51.400;7.480;2023-05-07T16:24:11;20.00;99.90
851;DHT22;412;51.400;7.480;2023-05-07T16:26:37;20.00;99.90
851;DHT22;412;51.400;7.480;2023-05-07T16:29:03;20.10;99.90
851;DHT22;412;51.400;7.480;2023-05-07T16:31:29;20.00;99.90
851;DHT22;412;51.400;7.480;2023-05-07T16:33:55;20.00;99.90
851;DHT22;412;51.400;7.480;2023-05-07T16:36:21;20.00;99.90
851;DHT22;412;51.400;7.480;2023-05-07T16:38:47;20.00;99.90
851;DHT22;412;51.400;7.480;2023-05-07T16:41:12;20.00;99.90
851;DHT22;412;51.400;7.480;2023-05-07T16:43:38;20.00;99.90
851;DHT22;412;51.400;7.480;2023-05-07T16:46:04;20.00;99.90
851;DHT22;412;51.400;7.480;2023-05-07T16:48:30;19.90;99.90
851;DHT22;412;51.400;7.480;2023-05-07T16:50:57;19.90;99.90
851;DHT22;412;51.400;7.480;2023-05-07T16:53:23;19.90;99.90